createdAt,value
2018-06-11T00:01:02.266Z,10.13
2018-06-11T00:03:30.858Z,9.73
2018-06-11T00:05:59.513Z,10.10
2018-06-11T00:08:28.133Z,10.13
2018-06-11T00:10:56.725Z,9.20
2018-06-11T00:13:25.270Z,9.07
2018-06-11T00:15:53.942Z,9.13
2018-06-11T00:18:22.511Z,9.13
2018-06-11T00:20:51.141Z,9.30
2018-06-11T00:23:19.741Z,9.13
2018-06-11T00:25:48.313Z,10.57
2018-06-11T00:28:16.933Z,9.40
2018-06-11T00:30:45.560Z,9.70
2018-06-11T00:33:14.179Z,9.07
2018-06-11T00:35:42.853Z,10.80
2018-06-11T00:38:11.442Z,9.47
2018-06-11T00:40:40.098Z,9.37
2018-06-11T00:43:08.720Z,8.97
2018-06-11T00:45:37.381Z,9.13
2018-06-11T00:48:06.128Z,9.13
2018-06-11T00:50:34.723Z,10.70
2018-06-11T00:53:03.289Z,9.53
2018-06-11T00:55:42.985Z,8.83
2018-06-11T00:58:11.703Z,7.60
2018-06-11T01:00:40.314Z,9.40
2018-06-11T01:03:08.913Z,9.30
2018-06-11T01:05:37.538Z,10.37
2018-06-11T01:08:06.149Z,11.30
2018-06-11T01:10:34.784Z,10.30
2018-06-11T01:13:03.353Z,11.30
2018-06-11T01:15:31.987Z,10.83
2018-06-11T01:18:00.576Z,10.57
2018-06-11T01:20:29.230Z,10.70
2018-06-11T01:22:57.846Z,10.23
2018-06-11T01:25:26.464Z,11.70
2018-06-11T01:27:55.066Z,11.90
2018-06-11T01:30:23.665Z,10.80
2018-06-11T01:32:52.259Z,12.37
2018-06-11T01:35:20.813Z,11.43
2018-06-11T01:37:49.383Z,12.33
2018-06-11T01:40:17.940Z,11.40
2018-06-11T01:42:46.548Z,13.10
2018-06-11T01:45:15.111Z,12.03
2018-06-11T01:47:43.689Z,10.90
2018-06-11T01:50:12.321Z,11.90
2018-06-11T01:52:40.917Z,11.80
2018-06-11T01:55:09.493Z,11.30
2018-06-11T01:57:38.073Z,11.73
2018-06-11T02:00:06.695Z,11.90
2018-06-11T02:02:35.292Z,12.70
2018-06-11T02:05:03.947Z,11.77
2018-06-11T02:07:32.528Z,13.73
2018-06-11T02:10:01.095Z,12.57
2018-06-11T02:12:29.692Z,13.37
2018-06-11T02:14:58.281Z,12.93
2018-06-11T02:17:26.862Z,12.13
2018-06-11T02:19:55.433Z,11.90
2018-06-11T02:22:24.017Z,12.93
2018-06-11T02:24:52.577Z,12.33
2018-06-11T02:27:21.142Z,12.10
2018-06-11T02:29:49.817Z,11.90
2018-06-11T02:32:18.451Z,12.03
2018-06-11T02:34:47.017Z,12.03
2018-06-11T02:37:15.644Z,12.10
2018-06-11T02:39:44.234Z,12.83
2018-06-11T02:42:13.675Z,14.40
2018-06-11T02:44:42.251Z,13.30
2018-06-11T02:47:10.859Z,13.07
2018-06-11T02:49:39.422Z,14.30
2018-06-11T02:52:08.033Z,13.80
2018-06-11T02:54:36.624Z,14.03
2018-06-11T02:57:05.259Z,14.20
2018-06-11T02:59:33.847Z,13.23
2018-06-11T03:02:02.433Z,13.80
2018-06-11T03:04:31.012Z,13.80
2018-06-11T03:06:59.607Z,14.20
2018-06-11T03:09:28.237Z,15.83
2018-06-11T03:12:03.556Z,15.20
2018-06-11T03:14:32.152Z,16.43
2018-06-11T03:17:00.717Z,16.07
2018-06-11T03:19:29.048Z,15.20
2018-06-11T03:21:57.645Z,17.30
2018-06-11T03:24:26.253Z,15.47
2018-06-11T03:26:54.824Z,16.90
2018-06-11T03:29:23.419Z,16.97
2018-06-11T03:31:51.989Z,16.13
2018-06-11T03:34:20.607Z,16.43
2018-06-11T03:36:49.181Z,17.80
2018-06-11T03:39:17.789Z,17.20
2018-06-11T03:41:46.364Z,17.93
2018-06-11T03:44:15.040Z,19.20
2018-06-11T03:46:43.621Z,16.17
2018-06-11T03:49:12.234Z,17.80
2018-06-11T03:51:40.797Z,17.77
2018-06-11T03:54:09.409Z,17.00
2018-06-11T03:56:37.993Z,18.30
2018-06-11T03:59:06.604Z,18.20
2018-06-11T04:01:35.180Z,16.20
2018-06-11T04:04:03.785Z,15.77
2018-06-11T04:06:32.420Z,17.87
2018-06-11T04:09:01.011Z,16.60
2018-06-11T04:11:29.580Z,16.77
2018-06-11T04:13:58.176Z,17.53
2018-06-11T04:16:26.753Z,17.40
2018-06-11T04:18:55.336Z,18.77
2018-06-11T04:21:23.909Z,17.27
2018-06-11T04:23:52.495Z,17.30
2018-06-11T04:26:21.076Z,17.83
2018-06-11T04:28:49.681Z,18.97
2018-06-11T04:31:18.268Z,17.07
2018-06-11T04:33:46.867Z,18.20
2018-06-11T04:36:15.434Z,17.33
2018-06-11T04:38:44.154Z,16.43
2018-06-11T04:41:12.724Z,16.53
2018-06-11T04:43:41.296Z,16.77
2018-06-11T04:46:09.876Z,15.13
2018-06-11T04:48:38.458Z,16.90
2018-06-11T04:51:07.096Z,15.77
2018-06-11T04:53:35.687Z,15.47
2018-06-11T04:56:04.328Z,15.67
2018-06-11T04:58:32.905Z,16.77
2018-06-11T05:01:01.548Z,20.43
2018-06-11T05:03:30.140Z,19.47
2018-06-11T05:05:58.714Z,18.70
2018-06-11T05:08:26.927Z,20.40
2018-06-11T05:10:55.496Z,19.63
2018-06-11T05:13:24.056Z,18.37
2018-06-11T05:15:52.656Z,19.70
2018-06-11T05:18:21.243Z,19.90
2018-06-11T05:20:49.828Z,21.50
2018-06-11T05:23:18.370Z,21.23
2018-06-11T05:25:47.015Z,19.63
2018-06-11T05:28:15.559Z,19.20
2018-06-11T05:30:44.160Z,18.83
2018-06-11T05:33:12.720Z,20.17
2018-06-11T05:35:41.304Z,20.67
2018-06-11T05:38:09.950Z,19.27
2018-06-11T05:40:38.590Z,20.23
2018-06-11T05:43:07.109Z,21.40
2018-06-11T05:45:35.696Z,19.70
2018-06-11T05:48:04.333Z,20.60
2018-06-11T05:50:32.934Z,21.43
2018-06-11T05:53:01.516Z,21.70
2018-06-11T05:55:30.100Z,23.00
2018-06-11T05:57:58.658Z,20.83
2018-06-11T06:00:27.260Z,21.03
2018-06-11T06:02:55.824Z,21.40
2018-06-11T06:05:24.397Z,22.03
2018-06-11T06:07:52.980Z,23.80
2018-06-11T06:10:29.123Z,21.97
2018-06-11T06:12:57.713Z,21.13
2018-06-11T06:15:26.292Z,20.73
2018-06-11T06:17:54.865Z,16.83
2018-06-11T06:20:30.192Z,18.57
2018-06-11T06:22:58.769Z,19.97
2018-06-11T06:25:27.421Z,20.83
2018-06-11T06:27:56.015Z,22.13
2018-06-11T06:30:24.719Z,19.73
2018-06-11T06:54:02.574Z,23.40
2018-06-11T06:56:31.127Z,22.50
2018-06-11T06:58:59.836Z,19.53
2018-06-11T07:01:28.404Z,22.23
2018-06-11T07:03:56.997Z,21.53
2018-06-11T07:06:25.569Z,20.50
2018-06-11T07:08:54.172Z,19.80
2018-06-11T07:11:22.758Z,20.03
2018-06-11T07:13:51.393Z,20.40
2018-06-11T07:16:26.356Z,38.87
2018-06-11T07:18:54.975Z,24.00
2018-06-11T07:21:23.582Z,2.93
2018-06-11T07:23:52.212Z,7.93
2018-06-11T07:26:20.850Z,18.17
2018-06-11T07:28:49.441Z,24.00
2018-06-11T07:31:18.299Z,24.90
2018-06-11T07:33:46.867Z,29.30
2018-06-11T07:36:15.437Z,28.87
2018-06-11T07:38:44.037Z,31.27
2018-06-11T07:41:12.566Z,32.30
2018-06-11T07:43:41.155Z,32.80
2018-06-11T07:46:09.841Z,28.47
2018-06-11T07:48:38.432Z,27.40
2018-06-11T07:51:07.018Z,25.53
2018-06-11T07:53:35.609Z,25.80
2018-06-11T07:56:04.268Z,25.00
2018-06-11T07:58:32.867Z,26.47
2018-06-11T08:01:01.408Z,26.30
2018-06-11T08:03:30.010Z,31.63
2018-06-11T08:05:58.568Z,25.93
2018-06-11T08:08:27.171Z,24.97
2018-06-11T08:10:55.763Z,23.93
2018-06-11T08:13:24.425Z,24.83
2018-06-11T08:15:52.985Z,24.73
2018-06-11T08:18:21.569Z,26.37
2018-06-11T08:20:50.144Z,25.07
2018-06-11T08:23:18.840Z,23.07
2018-06-11T08:25:47.401Z,22.90
2018-06-11T08:28:16.110Z,22.40
2018-06-11T08:30:44.874Z,22.33
2018-06-11T08:33:13.579Z,22.70
2018-06-11T08:35:42.189Z,22.83
2018-06-11T08:38:10.790Z,21.00
2018-06-11T08:40:39.381Z,21.73
2018-06-11T08:43:07.992Z,21.70
2018-06-11T08:45:36.581Z,24.00
2018-06-11T08:48:05.248Z,21.63
2018-06-11T08:50:33.815Z,22.33
2018-06-11T08:53:02.423Z,22.30
2018-06-11T08:55:31.073Z,22.23
2018-06-11T08:57:59.650Z,23.30
2018-06-11T09:00:28.299Z,19.30
2018-06-11T09:02:56.869Z,19.80
2018-06-11T09:05:25.480Z,22.03
2018-06-11T09:07:54.021Z,20.00
2018-06-11T09:10:22.642Z,20.37
2018-06-11T09:12:51.241Z,20.70
2018-06-11T09:15:19.820Z,22.23
2018-06-11T09:17:48.411Z,18.77
2018-06-11T09:20:17.019Z,18.97
2018-06-11T09:22:45.576Z,19.23
2018-06-11T09:25:14.176Z,18.13
2018-06-11T09:27:42.757Z,18.57
2018-06-11T09:30:11.362Z,20.07
2018-06-11T09:32:39.945Z,18.17
2018-06-11T09:35:08.536Z,17.00
2018-06-11T09:37:37.079Z,16.23
2018-06-11T09:40:05.829Z,16.20
2018-06-11T09:42:34.385Z,15.90
2018-06-11T09:45:02.941Z,16.00
2018-06-11T09:47:31.473Z,15.17
2018-06-11T09:50:00.089Z,16.40
2018-06-11T09:52:28.661Z,14.90
2018-06-11T09:54:57.242Z,20.10
2018-06-11T09:57:25.842Z,29.90
2018-06-11T09:59:54.436Z,15.20
2018-06-11T10:02:22.953Z,14.83
2018-06-11T10:04:51.516Z,15.10
2018-06-11T10:07:20.068Z,13.07
2018-06-11T10:09:48.656Z,13.47
2018-06-11T10:12:17.229Z,12.77
2018-06-11T10:14:45.775Z,12.13
2018-06-11T10:17:14.317Z,13.10
2018-06-11T10:19:42.857Z,14.37
2018-06-11T10:22:11.413Z,13.93
2018-06-11T10:24:39.956Z,13.13
2018-06-11T10:27:08.512Z,14.23
2018-06-11T10:29:37.128Z,12.20
2018-06-11T10:32:05.748Z,12.80
2018-06-11T10:34:34.305Z,11.70
2018-06-11T10:37:02.865Z,13.00
2018-06-11T10:39:31.483Z,12.07
2018-06-11T10:42:00.055Z,13.17
2018-06-11T10:44:28.598Z,13.43
2018-06-11T10:46:57.152Z,13.97
2018-06-11T10:49:25.708Z,14.03
2018-06-11T10:51:54.260Z,12.60
2018-06-11T10:54:22.805Z,13.13
2018-06-11T10:56:51.372Z,13.47
2018-06-11T10:59:19.935Z,14.93
2018-06-11T11:01:48.512Z,14.47
2018-06-11T11:04:17.061Z,15.20
2018-06-11T11:06:45.610Z,14.40
2018-06-11T11:09:14.169Z,14.93
2018-06-11T11:11:42.713Z,17.43
2018-06-11T11:14:11.253Z,18.40
2018-06-11T11:16:39.832Z,20.17
2018-06-11T11:19:08.380Z,19.47
2018-06-11T11:21:36.976Z,18.47
2018-06-11T11:24:05.553Z,19.87
2018-06-11T11:26:34.119Z,22.70
2018-06-11T11:29:02.701Z,19.50
2018-06-11T11:31:31.273Z,22.17
2018-06-11T11:33:59.833Z,21.10
2018-06-11T11:36:28.427Z,20.93
2018-06-11T11:38:56.965Z,21.27
2018-06-11T11:41:25.549Z,21.63
2018-06-11T11:43:54.108Z,20.50
2018-06-11T11:46:22.692Z,6.03
2018-06-11T11:48:51.269Z,6.27
2018-06-11T11:51:19.834Z,4.60
2018-06-11T11:53:48.400Z,4.87
2018-06-11T11:56:16.982Z,4.37
2018-06-11T11:58:45.545Z,4.03
2018-06-11T12:01:14.140Z,4.43
2018-06-11T12:03:42.689Z,4.43
2018-06-11T12:06:11.390Z,4.40
2018-06-11T12:08:39.928Z,3.70
2018-06-11T12:11:08.605Z,3.97
2018-06-11T12:13:37.153Z,3.47
2018-06-11T12:16:05.793Z,3.80
2018-06-11T12:18:34.338Z,3.10
2018-06-11T12:21:02.916Z,3.23
2018-06-11T12:23:31.165Z,3.30
2018-06-11T12:25:59.743Z,2.60
2018-06-11T12:28:28.344Z,2.80
2018-06-11T12:30:56.924Z,3.40
2018-06-11T12:33:25.478Z,3.37
2018-06-11T12:35:54.021Z,3.90
2018-06-11T12:38:22.605Z,4.03
2018-06-11T12:40:51.148Z,3.37
2018-06-11T12:43:19.704Z,3.40
2018-06-11T12:45:48.300Z,3.73
2018-06-11T12:48:16.893Z,4.27
2018-06-11T12:50:45.457Z,3.87
2018-06-11T12:53:14.047Z,4.13
2018-06-11T12:55:42.607Z,4.47
2018-06-11T12:58:11.202Z,3.63
2018-06-11T13:00:39.779Z,4.17
2018-06-11T13:03:08.408Z,6.27
2018-06-11T13:05:36.981Z,6.20
2018-06-11T13:08:05.613Z,4.53
2018-06-11T13:10:34.237Z,5.50
2018-06-11T13:13:02.884Z,6.23
2018-06-11T13:15:31.437Z,5.10
2018-06-11T13:18:00.137Z,4.47
2018-06-11T13:20:28.417Z,5.27
2018-06-11T13:22:57.021Z,5.00
2018-06-11T13:25:25.597Z,3.80
2018-06-11T13:27:54.180Z,4.60
2018-06-11T13:30:22.753Z,4.20
2018-06-11T13:32:51.360Z,3.53
2018-06-11T13:35:19.965Z,4.10
2018-06-11T13:37:48.582Z,3.60
2018-06-11T13:40:17.321Z,3.97
2018-06-11T13:42:45.885Z,2.80
2018-06-11T13:45:14.509Z,3.13
2018-06-11T13:47:43.142Z,2.40
2018-06-11T13:50:11.768Z,2.93
2018-06-11T13:52:40.325Z,3.20
2018-06-11T13:55:08.885Z,2.30
2018-06-11T13:57:37.489Z,2.60
2018-06-11T14:00:06.160Z,2.83
2018-06-11T14:02:34.757Z,3.00
2018-06-11T14:05:04.321Z,3.40
2018-06-11T14:07:32.917Z,3.70
2018-06-11T14:10:01.485Z,4.00
2018-06-11T14:12:30.048Z,3.87
2018-06-11T14:14:58.634Z,4.27
2018-06-11T14:17:27.232Z,5.63
2018-06-11T14:19:55.793Z,5.97
2018-06-11T14:22:24.446Z,5.83
2018-06-11T14:24:53.065Z,5.30
2018-06-11T14:27:21.761Z,5.13
2018-06-11T14:29:50.305Z,5.37
2018-06-11T14:32:18.932Z,5.20
2018-06-11T14:34:47.495Z,5.10
2018-06-11T14:37:16.100Z,4.47
2018-06-11T14:39:44.709Z,4.60
2018-06-11T14:42:13.700Z,5.27
2018-06-11T14:44:42.585Z,5.63
2018-06-11T14:47:11.351Z,5.00
2018-06-11T14:49:40.309Z,5.10
2018-06-11T14:52:09.067Z,5.60
2018-06-11T14:54:37.729Z,4.23
2018-06-11T14:57:06.432Z,4.97
2018-06-11T14:59:35.153Z,5.00
2018-06-11T15:02:03.907Z,4.40
2018-06-11T15:04:32.637Z,4.17
2018-06-11T15:07:01.329Z,4.80
2018-06-11T15:09:30.484Z,4.20
2018-06-11T15:11:59.379Z,11.00
2018-06-11T15:14:28.037Z,8.60
2018-06-11T15:16:56.660Z,3.43
2018-06-11T15:19:25.295Z,3.93
2018-06-11T15:21:53.901Z,3.47
2018-06-11T15:24:22.512Z,4.03
2018-06-11T15:26:51.092Z,3.73
2018-06-11T15:29:19.738Z,4.40
2018-06-11T15:31:48.317Z,4.03
2018-06-11T15:34:17.069Z,4.30
2018-06-11T15:36:45.724Z,5.00
2018-06-11T15:39:14.373Z,4.50
2018-06-11T15:41:42.936Z,4.30
2018-06-11T15:44:11.564Z,3.70
2018-06-11T15:46:40.211Z,4.63
2018-06-11T15:49:08.800Z,3.93
2018-06-11T15:51:37.381Z,4.17
2018-06-11T15:54:05.988Z,4.27
2018-06-11T15:56:34.570Z,3.40
2018-06-11T15:59:04.125Z,4.47
2018-06-11T16:01:32.722Z,3.50
2018-06-11T16:04:01.342Z,3.90
2018-06-11T16:06:29.937Z,3.60
2018-06-11T16:08:58.531Z,2.90
2018-06-11T16:11:27.205Z,3.27
2018-06-11T16:13:55.908Z,3.47
2018-06-11T16:16:24.492Z,3.33
2018-06-11T16:18:53.105Z,3.20
2018-06-11T16:21:21.732Z,3.37
2018-06-11T16:23:50.356Z,3.33
2018-06-11T16:26:18.917Z,3.23
2018-06-11T16:28:47.513Z,3.63
2018-06-11T16:31:16.129Z,3.60
2018-06-11T16:33:44.746Z,3.20
2018-06-11T16:36:13.545Z,3.60
2018-06-11T16:38:42.116Z,3.93
2018-06-11T16:41:10.665Z,3.90
2018-06-11T16:43:39.265Z,4.13
2018-06-11T16:46:07.976Z,4.10
2018-06-11T16:48:36.668Z,4.30
2018-06-11T16:51:05.277Z,4.07
2018-06-11T16:53:33.888Z,3.83
2018-06-11T16:56:02.457Z,4.27
2018-06-11T16:58:31.052Z,3.90
2018-06-11T17:00:59.624Z,3.67
2018-06-11T17:03:28.261Z,3.87
2018-06-11T17:05:56.832Z,4.03
2018-06-11T17:08:25.411Z,4.80
2018-06-11T17:10:53.993Z,4.30
2018-06-11T17:13:22.592Z,3.83
2018-06-11T17:15:51.185Z,4.50
2018-06-11T17:18:19.792Z,3.77
2018-06-11T17:20:48.374Z,3.47
2018-06-11T17:23:17.021Z,3.83
2018-06-11T17:25:45.603Z,4.00
2018-06-11T17:28:14.242Z,4.20
2018-06-11T17:30:42.852Z,4.47
2018-06-11T17:33:11.517Z,4.90
2018-06-11T17:35:40.097Z,3.97
2018-06-11T17:38:08.674Z,4.60
2018-06-11T17:40:37.394Z,4.60
2018-06-11T17:43:05.984Z,5.40
2018-06-11T17:45:34.604Z,5.37
2018-06-11T17:48:03.202Z,5.17
2018-06-11T17:50:31.842Z,5.30
2018-06-11T17:53:00.080Z,4.70
2018-06-11T17:55:28.689Z,5.10
2018-06-11T17:57:57.280Z,4.83
2018-06-11T18:00:25.916Z,5.60
2018-06-11T18:02:54.500Z,4.70
2018-06-11T18:05:23.174Z,4.80
2018-06-11T18:07:51.727Z,6.20
2018-06-11T18:10:20.355Z,4.20
2018-06-11T18:12:48.941Z,3.70
2018-06-11T18:15:17.560Z,4.13
2018-06-11T18:17:46.181Z,3.90
2018-06-11T18:20:14.804Z,4.23
2018-06-11T18:22:43.461Z,5.17
2018-06-11T18:25:12.116Z,4.40
2018-06-11T18:27:40.776Z,4.40
2018-06-11T18:30:09.493Z,4.77
2018-06-11T18:32:38.172Z,4.20
2018-06-11T18:35:06.826Z,4.97
2018-06-11T18:37:35.467Z,5.00
2018-06-11T18:40:04.245Z,5.13
2018-06-11T18:42:32.861Z,5.67
2018-06-11T18:45:01.511Z,5.10
2018-06-11T18:47:30.130Z,5.20
2018-06-11T18:49:58.762Z,5.87
2018-06-11T18:52:27.403Z,6.20
2018-06-11T18:54:56.040Z,6.30
2018-06-11T18:57:24.624Z,6.37
2018-06-11T18:59:53.224Z,6.03
2018-06-11T19:02:21.462Z,5.17
2018-06-11T19:04:50.124Z,12.50
2018-06-11T19:07:18.692Z,9.07
2018-06-11T19:09:47.375Z,8.70
2018-06-11T19:12:16.093Z,7.73
2018-06-11T19:14:44.738Z,6.60
2018-06-11T19:17:13.383Z,6.43
2018-06-11T19:19:41.969Z,6.80
2018-06-11T19:22:10.607Z,6.50
2018-06-11T19:24:39.471Z,7.07
2018-06-11T19:27:08.774Z,8.00
2018-06-11T19:29:37.445Z,8.00
2018-06-11T19:32:06.226Z,10.50
2018-06-11T19:34:34.927Z,9.53
2018-06-11T19:37:04.073Z,10.07
2018-06-11T19:39:32.642Z,9.10
2018-06-11T19:42:01.313Z,6.93
2018-06-11T19:44:29.909Z,9.00
2018-06-11T19:46:58.553Z,9.90
2018-06-11T19:49:27.162Z,8.73
2018-06-11T19:51:55.860Z,10.17
2018-06-11T19:54:24.437Z,8.00
2018-06-11T19:56:53.130Z,9.00
2018-06-11T19:59:21.707Z,11.90
2018-06-11T20:01:50.537Z,8.47
2018-06-11T20:04:19.149Z,10.50
2018-06-11T20:06:47.740Z,10.30
2018-06-11T20:09:16.347Z,9.40
2018-06-11T20:11:44.956Z,13.60
2018-06-11T20:14:13.620Z,9.70
2018-06-11T20:16:42.312Z,10.37
2018-06-11T20:19:10.958Z,12.40
2018-06-11T20:21:39.524Z,11.00
2018-06-11T20:24:08.089Z,11.70
2018-06-11T20:26:36.677Z,11.33
2018-06-11T20:29:05.273Z,9.20
2018-06-11T20:31:33.836Z,11.30
2018-06-11T20:34:02.472Z,9.97
2018-06-11T20:36:31.041Z,10.30
2018-06-11T20:38:59.636Z,10.10
2018-06-11T20:41:28.203Z,8.73
2018-06-11T20:43:56.809Z,22.50
2018-06-11T20:46:25.814Z,8.93
2018-06-11T20:48:54.464Z,9.40
2018-06-11T20:51:23.048Z,10.60
2018-06-11T20:53:51.642Z,13.20
2018-06-11T20:56:20.196Z,10.57
2018-06-11T20:58:48.856Z,10.53
2018-06-11T21:01:17.429Z,10.10
2018-06-11T21:03:46.013Z,11.03
2018-06-11T21:06:14.598Z,12.70
2018-06-11T21:08:43.189Z,13.50
2018-06-11T21:11:11.751Z,14.70
2018-06-11T21:13:40.361Z,16.70
2018-06-11T21:16:08.953Z,19.27
2018-06-11T21:18:37.529Z,18.23
2018-06-11T21:21:06.129Z,15.27
2018-06-11T21:23:34.721Z,16.60
2018-06-11T21:26:03.296Z,15.77
2018-06-11T21:28:31.908Z,17.70
2018-06-11T21:31:00.487Z,25.03
2018-06-11T21:33:29.117Z,31.93
2018-06-11T21:35:57.663Z,23.23
2018-06-11T21:38:26.239Z,21.87
2018-06-11T21:40:54.788Z,27.87
2018-06-11T21:43:23.519Z,16.63
2018-06-11T21:45:52.788Z,18.90
2018-06-11T21:48:21.400Z,21.10
2018-06-11T21:50:50.033Z,20.27
2018-06-11T21:53:18.615Z,17.53
2018-06-11T21:55:47.188Z,18.70
2018-06-11T21:58:15.727Z,15.23
2018-06-11T22:00:45.539Z,14.60
2018-06-11T22:03:14.154Z,15.40
2018-06-11T22:05:42.721Z,19.63
2018-06-11T22:08:11.310Z,23.50
2018-06-11T22:10:39.885Z,23.30
2018-06-11T22:13:08.431Z,16.63
2018-06-11T22:15:37.025Z,16.30
2018-06-11T22:18:05.690Z,25.70
2018-06-11T22:20:34.311Z,28.67
2018-06-11T22:23:02.897Z,22.10
2018-06-11T22:25:31.789Z,15.20
2018-06-11T22:28:00.354Z,17.83
2018-06-11T22:30:29.000Z,13.17
2018-06-11T22:32:57.564Z,14.07
2018-06-11T22:35:26.190Z,14.10
2018-06-11T22:37:54.795Z,21.27
2018-06-11T22:40:23.373Z,15.93
2018-06-11T22:42:51.945Z,13.10
2018-06-11T22:45:20.545Z,13.73
2018-06-11T22:47:49.124Z,14.37
2018-06-11T22:50:17.698Z,19.13
2018-06-11T22:52:46.256Z,17.97
2018-06-11T22:55:14.507Z,19.80
2018-06-11T22:57:43.057Z,14.77
2018-06-11T23:00:11.936Z,25.90
2018-06-11T23:02:40.537Z,19.10
2018-06-11T23:05:09.088Z,16.33
2018-06-11T23:07:37.705Z,17.13
2018-06-11T23:10:06.437Z,22.67
2018-06-11T23:12:35.953Z,15.93
2018-06-11T23:15:04.584Z,21.70
2018-06-11T23:17:33.214Z,16.57
2018-06-11T23:20:01.764Z,15.90
2018-06-11T23:22:30.361Z,14.23
2018-06-11T23:24:58.919Z,13.03
2018-06-11T23:27:27.494Z,14.50
2018-06-11T23:29:56.055Z,13.83
2018-06-11T23:32:24.662Z,13.30
2018-06-11T23:34:53.200Z,14.13
2018-06-11T23:37:21.427Z,13.27
2018-06-11T23:39:49.954Z,13.37
2018-06-11T23:42:18.529Z,13.07
2018-06-11T23:44:47.078Z,16.50
2018-06-11T23:47:15.681Z,15.33
2018-06-11T23:49:44.231Z,15.90
2018-06-11T23:52:12.847Z,14.37
2018-06-11T23:54:41.381Z,15.10
2018-06-11T23:57:09.976Z,18.67
2018-06-11T23:59:38.536Z,14.00
